createdAt,value
2019-02-03T00:01:39.344Z,0.80
2019-02-03T00:03:43.511Z,0.80
2019-02-03T00:05:45.179Z,0.80
2019-02-03T00:07:46.544Z,0.80
2019-02-03T00:09:47.929Z,0.80
2019-02-03T00:11:49.354Z,0.80
2019-02-03T00:13:50.781Z,0.80
2019-02-03T00:15:52.265Z,0.80
2019-02-03T00:17:53.699Z,0.80
2019-02-03T00:19:55.365Z,0.80
2019-02-03T00:21:56.758Z,0.90
2019-02-03T00:23:58.218Z,0.80
2019-02-03T00:25:59.709Z,0.90
2019-02-03T00:28:01.098Z,0.80
2019-02-03T00:30:10.281Z,0.80
2019-02-03T00:32:11.654Z,0.90
2019-02-03T00:34:13.027Z,0.90
2019-02-03T00:36:14.642Z,0.90
2019-02-03T00:38:22.916Z,0.90
2019-02-03T00:40:19.336Z,0.80
2019-02-03T00:42:20.838Z,0.80
2019-02-03T00:44:22.277Z,0.80
2019-02-03T00:46:23.896Z,0.90
2019-02-03T00:48:25.592Z,0.90
2019-02-03T00:50:27.165Z,0.80
2019-02-03T00:52:28.577Z,0.80
2019-02-03T00:54:30.051Z,0.80
2019-02-03T00:56:31.530Z,0.80
2019-02-03T00:58:33.225Z,0.80
2019-02-03T01:00:34.699Z,0.80
2019-02-03T01:02:36.080Z,0.80
2019-02-03T01:04:37.520Z,0.80
2019-02-03T01:06:39.217Z,0.90
2019-02-03T01:08:40.686Z,0.80
2019-02-03T01:10:42.268Z,0.80
2019-02-03T01:12:43.862Z,0.80
2019-02-03T01:14:45.428Z,0.80
2019-02-03T01:16:46.837Z,0.90
2019-02-03T01:18:48.203Z,0.90
2019-02-03T01:20:49.569Z,0.90
2019-02-03T01:22:51.081Z,0.90
2019-02-03T01:24:53.253Z,0.90
2019-02-03T01:26:54.631Z,0.90
2019-02-03T01:28:56.053Z,0.80
2019-02-03T01:30:57.504Z,0.80
2019-02-03T01:32:59.167Z,0.80
2019-02-03T01:35:00.600Z,0.80
2019-02-03T01:37:02.245Z,0.90
2019-02-03T01:39:06.617Z,0.80
2019-02-03T01:41:08.157Z,0.80
2019-02-03T01:43:09.933Z,0.80
2019-02-03T01:45:19.172Z,0.80
2019-02-03T01:47:20.764Z,0.80
2019-02-03T01:49:22.139Z,0.80
2019-02-03T01:51:23.517Z,0.80
2019-02-03T01:53:25.229Z,0.90
2019-02-03T01:55:26.609Z,0.80
2019-02-03T01:57:27.987Z,0.80
2019-02-03T01:59:29.405Z,0.80
2019-02-03T02:01:30.785Z,0.80
2019-02-03T02:03:32.147Z,0.80
2019-02-03T02:05:33.910Z,0.80
2019-02-03T02:07:35.266Z,0.80
2019-02-03T02:09:36.639Z,0.80
2019-02-03T02:11:38.630Z,0.80
2019-02-03T02:13:40.007Z,0.80
2019-02-03T02:15:41.369Z,0.80
2019-02-03T02:17:42.887Z,0.80
2019-02-03T02:19:44.477Z,0.80
2019-02-03T02:21:45.858Z,0.80
2019-02-03T02:23:47.215Z,0.80
2019-02-03T02:25:48.633Z,0.80
2019-02-03T02:27:50.086Z,0.80
2019-02-03T02:29:51.590Z,0.80
2019-02-03T02:31:53.409Z,0.80
2019-02-03T02:33:54.765Z,0.70
2019-02-03T02:35:56.156Z,0.80
2019-02-03T02:38:06.412Z,0.80
2019-02-03T02:40:12.080Z,0.80
2019-02-03T02:42:04.918Z,0.80
2019-02-03T02:44:06.273Z,0.80
2019-02-03T02:46:07.700Z,0.80
2019-02-03T02:48:09.075Z,0.90
2019-02-03T02:50:27.216Z,0.90
2019-02-03T02:52:28.740Z,0.80
2019-02-03T02:54:30.128Z,0.80
2019-02-03T02:56:31.661Z,0.80
2019-02-03T02:58:33.107Z,0.90
2019-02-03T03:00:34.464Z,0.90
2019-02-03T03:02:35.841Z,0.90
2019-02-03T03:04:37.260Z,0.80
2019-02-03T03:06:38.620Z,0.90
2019-02-03T03:08:40.001Z,0.80
2019-02-03T03:10:41.421Z,0.90
2019-02-03T03:12:42.981Z,0.90
2019-02-03T03:14:44.566Z,0.90
2019-02-03T03:16:46.268Z,0.90
2019-02-03T03:18:47.689Z,0.90
2019-02-03T03:20:49.052Z,0.90
2019-02-03T03:22:50.637Z,0.90
2019-02-03T03:24:52.056Z,0.80
2019-02-03T03:26:53.494Z,0.90
2019-02-03T03:28:54.913Z,0.80
2019-02-03T03:30:56.299Z,0.90
2019-02-03T03:32:58.153Z,0.90
2019-02-03T03:34:59.966Z,0.90
2019-02-03T03:37:01.332Z,0.90
2019-02-03T03:39:06.608Z,0.90
2019-02-03T03:41:08.007Z,0.90
2019-02-03T03:43:09.384Z,0.90
2019-02-03T03:45:11.564Z,0.90
2019-02-03T03:47:13.272Z,0.90
2019-02-03T03:49:14.657Z,0.80
2019-02-03T03:51:16.029Z,0.80
2019-02-03T03:53:17.777Z,0.80
2019-02-03T03:55:19.139Z,0.80
2019-02-03T03:57:20.516Z,0.90
2019-02-03T03:59:21.952Z,0.90
2019-02-03T04:01:23.319Z,0.90
2019-02-03T04:03:24.683Z,0.90
2019-02-03T04:05:26.103Z,0.90
2019-02-03T04:07:27.480Z,0.90
2019-02-03T04:09:28.843Z,0.90
2019-02-03T04:11:30.756Z,0.90
2019-02-03T04:13:32.173Z,0.90
2019-02-03T04:15:33.535Z,0.90
2019-02-03T04:17:34.901Z,0.90
2019-02-03T04:19:36.358Z,0.90
2019-02-03T04:21:37.713Z,0.90
2019-02-03T04:23:39.075Z,0.90
2019-02-03T04:25:40.505Z,0.90
2019-02-03T04:27:42.302Z,0.90
2019-02-03T04:29:43.888Z,0.90
2019-02-03T04:31:45.263Z,0.90
2019-02-03T04:33:46.728Z,0.90
2019-02-03T04:35:48.089Z,0.90
2019-02-03T04:37:49.775Z,0.90
2019-02-03T04:39:51.187Z,0.90
2019-02-03T04:41:52.553Z,0.90
2019-02-03T04:43:53.916Z,0.90
2019-02-03T04:45:55.345Z,0.90
2019-02-03T04:47:56.778Z,0.90
2019-02-03T04:49:58.144Z,0.90
2019-02-03T04:51:59.531Z,0.90
2019-02-03T04:54:00.963Z,1.00
2019-02-03T04:56:02.919Z,0.90
2019-02-03T04:58:04.278Z,0.90
2019-02-03T05:00:13.763Z,0.90
2019-02-03T05:02:15.122Z,0.90
2019-02-03T05:04:16.485Z,0.90
2019-02-03T05:06:18.329Z,0.90
2019-02-03T05:08:19.722Z,0.90
2019-02-03T05:10:21.353Z,0.90
2019-02-03T05:12:22.789Z,0.90
2019-02-03T05:14:24.191Z,0.90
2019-02-03T05:16:25.541Z,0.90
2019-02-03T05:18:26.966Z,0.90
2019-02-03T05:20:28.336Z,0.90
2019-02-03T05:22:29.717Z,0.90
2019-02-03T05:24:31.197Z,1.00
2019-02-03T05:26:32.575Z,1.00
2019-02-03T05:28:33.940Z,0.90
2019-02-03T05:30:37.274Z,0.90
2019-02-03T05:32:38.740Z,0.90
2019-02-03T05:34:40.197Z,0.90
2019-02-03T05:36:41.552Z,0.90
2019-02-03T05:38:42.932Z,0.90
2019-02-03T05:40:44.356Z,0.90
2019-02-03T05:42:45.723Z,0.90
2019-02-03T05:44:47.109Z,0.90
2019-02-03T05:46:48.703Z,0.90
2019-02-03T05:48:50.085Z,0.90
2019-02-03T05:50:51.863Z,0.90
2019-02-03T05:52:53.837Z,0.90
2019-02-03T05:54:55.288Z,0.90
2019-02-03T05:56:56.667Z,0.90
2019-02-03T05:58:58.080Z,0.90
2019-02-03T06:00:59.464Z,0.90
2019-02-03T06:03:00.865Z,0.90
2019-02-03T06:05:03.927Z,0.90
2019-02-03T06:07:05.341Z,0.90
2019-02-03T06:09:07.211Z,0.90
2019-02-03T06:11:08.578Z,0.90
2019-02-03T06:13:10.183Z,0.90
2019-02-03T06:15:11.953Z,0.90
2019-02-03T06:17:13.530Z,0.90
2019-02-03T06:19:14.947Z,0.90
2019-02-03T06:21:16.763Z,0.90
2019-02-03T06:23:18.173Z,0.90
2019-02-03T06:25:19.647Z,0.90
2019-02-03T06:27:21.411Z,0.90
2019-02-03T06:29:22.863Z,0.90
2019-02-03T06:31:24.243Z,0.90
2019-02-03T06:33:25.649Z,0.90
2019-02-03T06:35:27.024Z,0.90
2019-02-03T06:37:28.458Z,0.90
2019-02-03T06:39:29.914Z,0.90
2019-02-03T06:41:31.286Z,0.90
2019-02-03T06:43:32.652Z,0.90
2019-02-03T06:45:38.802Z,0.90
2019-02-03T06:47:40.171Z,0.90
2019-02-03T06:49:41.678Z,0.90
2019-02-03T06:51:43.054Z,0.90
2019-02-03T06:53:44.433Z,0.90
2019-02-03T06:55:45.843Z,0.90
2019-02-03T06:57:47.221Z,0.90
2019-02-03T06:59:51.086Z,0.90
2019-02-03T07:01:51.884Z,0.90
2019-02-03T07:03:53.715Z,0.90
2019-02-03T07:05:55.092Z,0.90
2019-02-03T07:07:56.783Z,0.90
2019-02-03T07:10:00.708Z,0.90
2019-02-03T07:12:01.441Z,0.90
2019-02-03T07:14:03.558Z,0.90
2019-02-03T07:16:04.945Z,0.90
2019-02-03T07:18:06.316Z,0.90
2019-02-03T07:20:16.543Z,0.90
2019-02-03T07:22:17.910Z,0.90
2019-02-03T07:24:19.285Z,1.00
2019-02-03T07:26:20.799Z,0.90
2019-02-03T07:28:22.168Z,0.90
2019-02-03T07:30:25.929Z,0.90
2019-02-03T07:32:27.609Z,0.90
2019-02-03T07:34:29.086Z,0.90
2019-02-03T07:36:30.539Z,1.00
2019-02-03T07:38:31.923Z,0.90
2019-02-03T07:40:33.359Z,1.00
2019-02-03T07:42:34.739Z,1.00
2019-02-03T07:44:36.110Z,1.00
2019-02-03T07:46:37.507Z,1.00
2019-02-03T07:48:39.004Z,1.00
2019-02-03T07:50:40.783Z,1.00
2019-02-03T07:52:42.207Z,1.00
2019-02-03T07:54:43.574Z,1.00
2019-02-03T07:56:45.000Z,1.00
2019-02-03T07:58:46.708Z,1.00
2019-02-03T08:00:48.096Z,1.00
2019-02-03T08:02:49.465Z,1.00
2019-02-03T08:04:50.858Z,1.00
2019-02-03T08:06:52.235Z,1.00
2019-02-03T08:08:53.652Z,1.00
2019-02-03T08:10:55.069Z,1.10
2019-02-03T08:12:56.580Z,1.00
2019-02-03T08:14:57.970Z,1.00
2019-02-03T08:16:59.755Z,1.10
2019-02-03T08:19:01.186Z,1.00
2019-02-03T08:21:02.573Z,1.00
2019-02-03T08:23:04.084Z,1.00
2019-02-03T08:25:10.468Z,1.00
2019-02-03T08:27:12.073Z,1.00
2019-02-03T08:29:14.728Z,1.00
2019-02-03T08:31:16.492Z,1.00
2019-02-03T08:33:17.858Z,1.00
2019-02-03T08:35:20.096Z,1.10
2019-02-03T08:37:21.699Z,1.00
2019-02-03T08:39:23.067Z,1.00
2019-02-03T08:41:24.496Z,1.00
2019-02-03T08:43:25.888Z,1.00
2019-02-03T08:45:27.253Z,1.00
2019-02-03T08:47:28.682Z,1.00
2019-02-03T08:49:30.105Z,1.00
2019-02-03T08:51:32.398Z,1.00
2019-02-03T08:53:33.942Z,1.00
2019-02-03T08:55:35.375Z,1.00
2019-02-03T08:57:36.736Z,1.00
2019-02-03T08:59:38.099Z,1.00
2019-02-03T09:01:40.055Z,1.00
2019-02-03T09:03:41.420Z,1.10
2019-02-03T09:05:42.789Z,1.10
2019-02-03T09:07:44.296Z,1.10
2019-02-03T09:09:45.675Z,1.10
2019-02-03T09:11:47.162Z,1.10
2019-02-03T09:13:48.586Z,1.10
2019-02-03T09:15:51.966Z,1.10
2019-02-03T09:17:53.259Z,1.10
2019-02-03T09:19:57.969Z,1.00
2019-02-03T09:21:58.330Z,1.00
2019-02-03T09:23:59.714Z,1.00
2019-02-03T09:26:01.130Z,1.00
2019-02-03T09:28:03.538Z,1.00
2019-02-03T09:30:14.113Z,1.10
2019-02-03T09:32:15.491Z,1.10
2019-02-03T09:34:17.129Z,1.10
2019-02-03T09:36:18.606Z,1.10
2019-02-03T09:38:20.144Z,1.10
2019-02-03T09:40:28.004Z,1.10
2019-02-03T09:42:29.374Z,1.10
2019-02-03T09:44:30.798Z,1.10
2019-02-03T09:46:32.229Z,1.10
2019-02-03T09:48:33.639Z,1.10
2019-02-03T09:50:35.231Z,1.00
2019-02-03T09:52:36.609Z,1.10
2019-02-03T09:54:37.969Z,1.00
2019-02-03T09:56:39.478Z,1.00
2019-02-03T09:58:40.842Z,1.10
2019-02-03T10:00:42.200Z,1.10
2019-02-03T10:02:43.813Z,1.10
2019-02-03T10:04:45.180Z,1.10
2019-02-03T10:06:46.943Z,1.10
2019-02-03T10:08:48.375Z,1.10
2019-02-03T10:10:49.771Z,1.10
2019-02-03T10:12:51.245Z,1.10
2019-02-03T10:14:52.643Z,1.10
2019-02-03T10:16:54.084Z,1.20
2019-02-03T10:18:55.464Z,1.10
2019-02-03T10:20:56.834Z,1.10
2019-02-03T10:23:01.069Z,1.10
2019-02-03T10:25:10.830Z,1.10
2019-02-03T10:27:14.076Z,1.20
2019-02-03T10:29:15.731Z,1.10
2019-02-03T10:31:19.738Z,1.20
2019-02-03T10:33:22.114Z,1.20
2019-02-03T10:35:29.939Z,1.20
2019-02-03T10:37:32.363Z,1.10
2019-02-03T10:39:34.830Z,1.10
2019-02-03T10:41:36.991Z,1.10
2019-02-03T10:43:39.126Z,1.20
2019-02-03T10:45:41.080Z,1.20
2019-02-03T10:47:43.279Z,1.20
2019-02-03T10:49:46.757Z,1.20
2019-02-03T10:51:48.003Z,1.20
2019-02-03T10:53:49.430Z,1.20
2019-02-03T10:55:51.119Z,1.20
2019-02-03T10:57:53.140Z,1.30
2019-02-03T10:59:54.783Z,1.30
2019-02-03T11:01:56.737Z,1.20
2019-02-03T11:03:58.312Z,1.30
2019-02-03T11:06:00.216Z,1.30
2019-02-03T11:08:02.044Z,1.30
2019-02-03T11:10:09.210Z,1.30
2019-02-03T11:12:10.814Z,1.30
2019-02-03T11:14:12.690Z,1.20
2019-02-03T11:16:14.441Z,1.20
2019-02-03T11:18:16.345Z,1.20
2019-02-03T11:20:24.157Z,1.20
2019-02-03T11:22:26.211Z,1.30
2019-02-03T11:24:27.860Z,1.30
2019-02-03T11:26:29.874Z,1.30
2019-02-03T11:28:31.359Z,1.30
2019-02-03T11:30:33.025Z,1.30
2019-02-03T11:32:34.479Z,1.30
2019-02-03T11:34:35.913Z,1.30
2019-02-03T11:36:37.301Z,1.30
2019-02-03T11:38:38.742Z,1.30
2019-02-03T11:40:40.108Z,1.30
2019-02-03T11:42:41.555Z,1.30
2019-02-03T11:44:42.997Z,1.30
2019-02-03T11:46:44.379Z,1.30
2019-02-03T11:48:45.764Z,1.30
2019-02-03T11:50:48.793Z,1.30
2019-02-03T11:52:50.166Z,1.30
2019-02-03T11:54:51.532Z,1.30
2019-02-03T11:56:53.269Z,1.30
2019-02-03T11:58:54.660Z,1.30
2019-02-03T12:00:56.229Z,1.30
2019-02-03T12:02:57.884Z,1.40
2019-02-03T12:04:59.314Z,1.30
2019-02-03T12:07:00.704Z,1.30
2019-02-03T12:09:06.092Z,1.40
2019-02-03T12:11:07.530Z,1.40
2019-02-03T12:13:08.892Z,1.40
2019-02-03T12:15:17.700Z,1.40
2019-02-03T12:17:19.203Z,1.40
2019-02-03T12:19:20.639Z,1.40
2019-02-03T12:21:22.032Z,1.40
2019-02-03T12:23:23.508Z,1.40
2019-02-03T12:25:35.808Z,1.40
2019-02-03T12:27:38.852Z,1.40
2019-02-03T12:29:40.373Z,1.50
2019-02-03T12:31:41.882Z,1.50
2019-02-03T12:33:43.256Z,1.50
2019-02-03T12:35:44.684Z,1.40
2019-02-03T12:37:46.453Z,1.50
2019-02-03T12:39:47.884Z,1.50
2019-02-03T12:41:49.255Z,1.50
2019-02-03T12:43:50.637Z,1.50
2019-02-03T12:45:52.466Z,1.40
2019-02-03T12:47:54.141Z,1.40
2019-02-03T12:49:55.506Z,1.40
2019-02-03T12:51:56.942Z,1.40
2019-02-03T12:53:58.392Z,1.40
2019-02-03T12:55:59.759Z,1.40
2019-02-03T12:58:01.349Z,1.40
2019-02-03T13:00:13.643Z,1.40
2019-02-03T13:02:15.117Z,1.40
2019-02-03T13:04:16.489Z,1.40
2019-02-03T13:06:17.929Z,1.40
2019-02-03T13:08:19.363Z,1.40
2019-02-03T13:10:25.138Z,1.40
2019-02-03T13:12:27.129Z,1.40
2019-02-03T13:14:30.509Z,1.40
2019-02-03T13:16:32.035Z,1.40
2019-02-03T13:18:33.622Z,1.40
2019-02-03T13:20:35.229Z,1.40
2019-02-03T13:22:36.608Z,1.40
2019-02-03T13:24:38.024Z,1.40
2019-02-03T13:26:39.409Z,1.40
2019-02-03T13:28:40.777Z,1.40
2019-02-03T13:30:48.021Z,1.40
2019-02-03T13:32:49.404Z,1.40
2019-02-03T13:34:50.791Z,1.40
2019-02-03T13:36:54.267Z,1.40
2019-02-03T13:38:55.632Z,1.40
2019-02-03T13:40:57.014Z,1.40
2019-02-03T13:42:58.645Z,1.40
2019-02-03T13:45:00.189Z,1.40
2019-02-03T13:47:01.574Z,1.40
2019-02-03T13:49:03.410Z,1.40
2019-02-03T13:51:04.816Z,1.50
2019-02-03T13:53:06.271Z,1.40
2019-02-03T13:55:09.715Z,1.40
2019-02-03T13:57:11.100Z,1.40
2019-02-03T13:59:12.466Z,1.40
2019-02-03T14:01:14.191Z,1.40
2019-02-03T14:03:16.651Z,1.40
2019-02-03T14:05:18.182Z,1.40
2019-02-03T14:07:19.618Z,1.40
2019-02-03T14:09:21.018Z,1.40
2019-02-03T14:11:23.006Z,1.40
2019-02-03T14:13:24.799Z,1.40
2019-02-03T14:15:26.465Z,1.40
2019-02-03T14:17:27.852Z,1.40
2019-02-03T14:19:29.302Z,1.40
2019-02-03T14:21:30.673Z,1.40
2019-02-03T14:23:32.071Z,1.40
2019-02-03T14:25:33.499Z,1.40
2019-02-03T14:27:35.805Z,1.40
2019-02-03T14:29:37.470Z,1.40
2019-02-03T14:31:38.912Z,1.40
2019-02-03T14:33:40.293Z,1.40
2019-02-03T14:35:41.772Z,1.40
2019-02-03T14:37:43.316Z,1.40
2019-02-03T14:39:44.689Z,1.40
2019-02-03T14:41:46.393Z,1.40
2019-02-03T14:43:47.796Z,1.40
2019-02-03T14:45:49.172Z,1.40
2019-02-03T14:47:51.224Z,1.40
2019-02-03T14:49:52.622Z,1.40
2019-02-03T14:51:54.092Z,1.40
2019-02-03T14:53:55.549Z,1.50
2019-02-03T14:55:56.926Z,1.50
2019-02-03T14:57:58.374Z,1.40
2019-02-03T14:59:59.866Z,1.40
2019-02-03T15:02:01.362Z,1.40
2019-02-03T15:04:03.498Z,1.40
2019-02-03T15:06:06.780Z,1.40
2019-02-03T15:08:08.280Z,1.40
2019-02-03T15:10:13.377Z,1.40
2019-02-03T15:12:14.819Z,1.40
2019-02-03T15:14:16.281Z,1.40
2019-02-03T15:16:17.716Z,1.40
2019-02-03T15:18:19.308Z,1.40
2019-02-03T15:20:24.110Z,1.40
2019-02-03T15:22:25.849Z,1.40
2019-02-03T15:24:27.244Z,1.40
2019-02-03T15:26:28.647Z,1.40
2019-02-03T15:28:30.290Z,1.40
2019-02-03T15:30:42.207Z,1.40
2019-02-03T15:32:43.702Z,1.40
2019-02-03T15:34:45.157Z,1.40
2019-02-03T15:36:46.534Z,1.40
2019-02-03T15:38:47.912Z,1.40
2019-02-03T15:40:49.355Z,1.40
2019-02-03T15:42:50.743Z,1.30
2019-02-03T15:44:52.537Z,1.40
2019-02-03T15:46:54.145Z,1.40
2019-02-03T15:48:55.547Z,1.30
2019-02-03T15:50:57.026Z,1.30
2019-02-03T15:52:58.436Z,1.30
2019-02-03T15:54:59.826Z,1.30
2019-02-03T15:57:01.365Z,1.30
2019-02-03T15:59:02.739Z,1.40
2019-02-03T16:01:04.170Z,1.30
2019-02-03T16:03:08.573Z,1.40
2019-02-03T16:05:10.421Z,1.30
2019-02-03T16:07:11.847Z,1.30
2019-02-03T16:09:13.298Z,1.30
2019-02-03T16:11:14.865Z,1.30
2019-02-03T16:13:16.233Z,1.30
2019-02-03T16:15:17.813Z,1.30
2019-02-03T16:17:19.242Z,1.30
2019-02-03T16:19:20.619Z,1.30
2019-02-03T16:21:22.281Z,1.30
2019-02-03T16:23:23.806Z,1.30
2019-02-03T16:25:25.174Z,1.30
2019-02-03T16:27:26.664Z,1.30
2019-02-03T16:29:28.111Z,1.30
2019-02-03T16:31:29.489Z,1.30
2019-02-03T16:33:30.869Z,1.20
2019-02-03T16:35:32.409Z,1.20
2019-02-03T16:37:33.787Z,1.20
2019-02-03T16:39:35.151Z,1.20
2019-02-03T16:41:36.697Z,1.20
2019-02-03T16:43:48.656Z,1.20
2019-02-03T16:45:41.439Z,1.20
2019-02-03T16:47:43.017Z,1.20
2019-02-03T16:49:44.445Z,1.20
2019-02-03T16:51:45.819Z,1.20
2019-02-03T16:53:47.250Z,1.20
2019-02-03T16:55:48.635Z,1.20
2019-02-03T16:57:50.116Z,1.20
2019-02-03T16:59:51.548Z,1.20
2019-02-03T17:01:52.944Z,1.20
2019-02-03T17:03:54.322Z,1.20
2019-02-03T17:05:55.813Z,1.20
2019-02-03T17:08:00.047Z,1.20
2019-02-03T17:10:01.670Z,1.20
2019-02-03T17:12:03.575Z,1.20
2019-02-03T17:14:05.549Z,1.20
2019-02-03T17:16:07.025Z,1.10
2019-02-03T17:18:10.844Z,1.20
2019-02-03T17:20:12.436Z,1.20
2019-02-03T17:22:13.825Z,1.10
2019-02-03T17:24:15.250Z,1.10
2019-02-03T17:26:16.707Z,1.20
2019-02-03T17:28:18.192Z,1.20
2019-02-03T17:30:19.755Z,1.10
2019-02-03T17:32:21.497Z,1.20
2019-02-03T17:34:22.984Z,1.20
2019-02-03T17:36:24.385Z,1.20
2019-02-03T17:38:25.833Z,1.20
2019-02-03T17:40:27.213Z,1.10
2019-02-03T17:42:28.572Z,1.20
2019-02-03T17:44:30.006Z,1.20
2019-02-03T17:46:31.393Z,1.20
2019-02-03T17:48:32.772Z,1.10
2019-02-03T17:50:34.302Z,1.10
2019-02-03T17:52:39.012Z,1.10
2019-02-03T17:54:38.988Z,1.10
2019-02-03T17:56:40.372Z,1.10
2019-02-03T17:58:41.994Z,1.10
2019-02-03T18:00:45.434Z,1.10
2019-02-03T18:02:46.821Z,1.10
2019-02-03T18:04:48.183Z,1.10
2019-02-03T18:06:49.632Z,1.10
2019-02-03T18:08:51.021Z,1.10
2019-02-03T18:10:52.476Z,1.10
2019-02-03T18:12:54.309Z,1.10
2019-02-03T18:14:55.677Z,1.10
2019-02-03T18:16:57.361Z,1.10
2019-02-03T18:18:58.932Z,1.00
2019-02-03T18:21:00.655Z,1.10
2019-02-03T18:23:02.725Z,1.10
2019-02-03T18:25:07.795Z,1.10
2019-02-03T18:27:09.388Z,1.10
2019-02-03T18:29:10.788Z,1.10
2019-02-03T18:31:12.273Z,1.10
2019-02-03T18:33:13.885Z,1.10
2019-02-03T18:35:15.663Z,1.00
2019-02-03T18:37:19.336Z,1.00
2019-02-03T18:39:20.385Z,1.00
2019-02-03T18:41:21.776Z,1.00
2019-02-03T18:43:23.464Z,1.10
2019-02-03T18:45:25.405Z,1.00
2019-02-03T18:47:26.976Z,1.00
2019-02-03T18:49:28.418Z,1.10
2019-02-03T18:51:29.910Z,1.00
2019-02-03T18:53:31.590Z,1.00
2019-02-03T18:55:40.361Z,1.00
2019-02-03T18:57:41.930Z,1.00
2019-02-03T18:59:43.329Z,1.00
2019-02-03T19:01:44.790Z,1.00
2019-02-03T19:03:46.302Z,1.00
2019-02-03T19:05:47.674Z,1.00
2019-02-03T19:07:49.768Z,1.00
2019-02-03T19:09:51.160Z,1.00
2019-02-03T19:11:52.996Z,1.00
2019-02-03T19:13:54.430Z,1.00
2019-02-03T19:15:55.914Z,1.00
2019-02-03T19:17:57.363Z,0.90
2019-02-03T19:19:58.755Z,0.90
2019-02-03T19:22:00.120Z,0.90
2019-02-03T19:24:01.583Z,1.00
2019-02-03T19:26:03.684Z,0.90
2019-02-03T19:28:05.073Z,1.00
2019-02-03T19:30:12.124Z,1.00
2019-02-03T19:32:14.621Z,1.00
2019-02-03T19:34:16.096Z,1.00
2019-02-03T19:36:17.567Z,1.00
2019-02-03T19:38:19.099Z,1.00
2019-02-03T19:40:29.388Z,1.00
2019-02-03T19:42:30.782Z,0.90
2019-02-03T19:44:32.197Z,0.90
2019-02-03T19:46:33.680Z,0.90
2019-02-03T19:48:35.070Z,0.90
2019-02-03T19:50:39.089Z,0.90
2019-02-03T19:52:40.719Z,0.90
2019-02-03T19:54:42.088Z,0.90
2019-02-03T19:56:44.559Z,1.00
2019-02-03T19:58:45.997Z,1.00
2019-02-03T20:00:47.361Z,0.90
2019-02-03T20:02:48.843Z,1.00
2019-02-03T20:04:50.265Z,1.00
2019-02-03T20:06:51.764Z,1.00
2019-02-03T20:08:53.306Z,0.90
2019-02-03T20:10:54.684Z,0.90
2019-02-03T20:12:56.685Z,0.90
2019-02-03T20:15:09.331Z,0.90
2019-02-03T20:17:01.432Z,0.90
2019-02-03T20:19:03.218Z,1.00
2019-02-03T20:21:04.645Z,1.00
2019-02-03T20:23:06.938Z,1.00
2019-02-03T20:25:10.507Z,1.00
2019-02-03T20:27:11.882Z,1.00
2019-02-03T20:29:13.316Z,1.00
2019-02-03T20:31:14.686Z,1.00
2019-02-03T20:33:16.070Z,0.90
2019-02-03T20:35:20.919Z,0.90
2019-02-03T20:37:22.324Z,0.90
2019-02-03T20:39:23.712Z,0.90
2019-02-03T20:41:25.127Z,0.90
2019-02-03T20:43:26.499Z,1.00
2019-02-03T20:45:28.110Z,0.90
2019-02-03T20:47:29.562Z,0.90
2019-02-03T20:49:31.008Z,1.00
2019-02-03T20:51:32.469Z,0.90
2019-02-03T20:53:33.985Z,0.90
2019-02-03T20:55:35.372Z,0.90
2019-02-03T20:57:36.847Z,0.90
2019-02-03T20:59:38.211Z,0.90
2019-02-03T21:01:39.927Z,0.90
2019-02-03T21:03:41.509Z,0.90
2019-02-03T21:05:42.981Z,0.90
2019-02-03T21:07:45.233Z,0.80
2019-02-03T21:09:46.718Z,0.80
2019-02-03T21:11:48.120Z,0.80
2019-02-03T21:13:49.561Z,0.80
2019-02-03T21:15:51.045Z,0.80
2019-02-03T21:17:52.766Z,0.80
2019-02-03T21:19:54.292Z,0.80
2019-02-03T21:21:56.043Z,0.80
2019-02-03T21:23:57.847Z,0.70
2019-02-03T21:25:59.539Z,0.70
2019-02-03T21:28:01.777Z,0.70
2019-02-03T21:30:26.783Z,0.70
2019-02-03T21:32:28.583Z,0.60
2019-02-03T21:34:33.125Z,0.60
2019-02-03T21:36:33.861Z,0.60
2019-02-03T21:38:35.535Z,0.60
2019-02-03T21:40:37.388Z,0.60
2019-02-03T21:42:39.135Z,0.50
2019-02-03T21:44:40.897Z,0.50
2019-02-03T21:46:42.533Z,0.50
2019-02-03T21:48:44.252Z,0.50
2019-02-03T21:50:46.005Z,0.40
2019-02-03T21:52:48.033Z,0.40
2019-02-03T21:54:49.675Z,0.40
2019-02-03T21:56:51.441Z,0.40
2019-02-03T21:58:53.281Z,0.40
2019-02-03T22:00:55.057Z,0.40
2019-02-03T22:02:56.996Z,0.40
2019-02-03T22:04:58.701Z,0.40
2019-02-03T22:07:00.383Z,0.30
2019-02-03T22:09:05.300Z,0.30
2019-02-03T22:11:06.977Z,0.30
2019-02-03T22:13:08.666Z,0.30
2019-02-03T22:15:10.642Z,0.30
2019-02-03T22:17:12.320Z,0.30
2019-02-03T22:19:14.036Z,0.30
2019-02-03T22:21:15.753Z,0.30
2019-02-03T22:23:17.522Z,0.20
2019-02-03T22:25:19.274Z,0.20
2019-02-03T22:27:21.519Z,0.10
2019-02-03T22:29:23.160Z,0.10
2019-02-03T22:31:24.915Z,0.10
2019-02-03T22:33:26.697Z,0.10
2019-02-03T22:35:28.381Z,0.10
2019-02-03T22:37:30.102Z,0.10
2019-02-03T22:39:31.767Z,0.10
2019-02-03T22:41:33.437Z,0.10
2019-02-03T22:43:35.165Z,0.00
2019-02-03T22:45:36.863Z,0.00
2019-02-03T22:47:38.723Z,0.00
2019-02-03T22:49:40.723Z,0.00
2019-02-03T22:51:42.365Z,0.00
2019-02-03T22:53:44.171Z,0.00
2019-02-03T22:55:45.888Z,-0.10
2019-02-03T22:57:47.644Z,-0.10
2019-02-03T22:59:49.330Z,-0.10
2019-02-03T23:01:51.378Z,-0.10
2019-02-03T23:03:53.054Z,-0.20
2019-02-03T23:05:55.076Z,-0.20
2019-02-03T23:07:56.784Z,-0.20
2019-02-03T23:09:58.492Z,-0.20
2019-02-03T23:12:00.472Z,-0.30
2019-02-03T23:14:04.594Z,-0.30
2019-02-03T23:16:06.033Z,-0.30
2019-02-03T23:18:07.817Z,-0.30
2019-02-03T23:20:09.780Z,-0.30
2019-02-03T23:22:11.857Z,-0.30
2019-02-03T23:24:13.635Z,-0.40
2019-02-03T23:26:15.812Z,-0.40
2019-02-03T23:28:17.496Z,-0.40
2019-02-03T23:30:19.271Z,-0.40
2019-02-03T23:32:20.992Z,-0.50
2019-02-03T23:34:22.667Z,-0.50
2019-02-03T23:36:25.843Z,-0.50
2019-02-03T23:38:27.566Z,-0.50
2019-02-03T23:40:29.638Z,-0.50
2019-02-03T23:42:31.413Z,-0.50
2019-02-03T23:44:33.235Z,-0.50
2019-02-03T23:46:34.909Z,-0.60
2019-02-03T23:48:36.582Z,-0.60
2019-02-03T23:50:38.568Z,-0.60
2019-02-03T23:52:40.238Z,-0.60
2019-02-03T23:54:41.911Z,-0.60
2019-02-03T23:56:43.868Z,-0.60
2019-02-03T23:58:45.551Z,-0.60
